Time;durP1;ratioP1;P1;durP2;ratioP2;P2;SDS_P1;SDS_P2;PMS_P1;PMS_P2;Temp;Humidity;BMP_temperature;BMP_pressure;BME280_temperature;BME280_humidity;BME280_pressure;Samples;Min_cycle;Max_cycle;Signal;HPM_P1;HPM_P2
2023/05/09 00:01:14;;;;;;;25.52;22.88;;;16.00;99.90;;;;;;5048265;28;20102;-58
2023/05/09 00:03:41;;;;;;;25.85;23.13;;;15.90;99.90;;;;;;5049429;28;20119;-59
2023/05/09 00:06:08;;;;;;;26.02;23.17;;;15.90;99.90;;;;;;5049621;28;20052;-58
2023/05/09 00:08:34;;;;;;;24.73;21.83;;;15.90;99.90;;;;;;5049379;28;20398;-59
2023/05/09 00:11:01;;;;;;;24.58;22.17;;;15.80;99.90;;;;;;5049573;28;20040;-58
2023/05/09 00:13:27;;;;;;;27.25;23.05;;;15.80;99.90;;;;;;5049551;28;20044;-59
2023/05/09 00:15:53;;;;;;;27.92;24.98;;;15.70;99.90;;;;;;5050364;28;20036;-59
2023/05/09 00:18:20;;;;;;;25.20;22.27;;;15.70;99.90;;;;;;5047705;28;20094;-58
2023/05/09 00:20:46;;;;;;;28.02;25.17;;;15.70;99.90;;;;;;5048671;28;20143;-59
2023/05/09 00:23:12;;;;;;;26.05;23.23;;;15.70;99.90;;;;;;5049163;28;20123;-60
2023/05/09 00:25:38;;;;;;;26.50;23.73;;;15.70;99.90;;;;;;5049244;28;20481;-58
2023/05/09 00:28:03;;;;;;;25.20;22.77;;;15.70;99.90;;;;;;5048084;28;20528;-59
2023/05/09 00:30:30;;;;;;;27.77;23.63;;;15.70;99.90;;;;;;5049755;28;20090;-59
2023/05/09 00:32:55;;;;;;;20.80;18.67;;;15.70;99.90;;;;;;5049424;28;20509;-59
2023/05/09 00:35:21;;;;;;;18.80;17.05;;;15.60;99.90;;;;;;5048823;28;20033;-58
2023/05/09 00:37:47;;;;;;;18.90;17.10;;;15.50;99.90;;;;;;5046904;28;20037;-59
2023/05/09 00:40:12;;;;;;;28.80;23.90;;;15.50;99.90;;;;;;5047570;28;20037;-60
2023/05/09 00:42:38;;;;;;;26.95;24.13;;;15.50;99.90;;;;;;5049801;28;20048;-59
2023/05/09 00:45:04;;;;;;;29.75;26.05;;;15.50;99.90;;;;;;5048595;28;20138;-59
2023/05/09 00:47:30;;;;;;;28.05;19.30;;;15.50;99.90;;;;;;5048424;28;20037;-60
2023/05/09 00:49:57;;;;;;;21.00;18.95;;;15.50;99.90;;;;;;5049188;28;20033;-59
2023/05/09 00:52:24;;;;;;;25.70;21.85;;;15.50;99.90;;;;;;5049357;28;20037;-59
2023/05/09 00:54:54;;;;;;;19.35;17.48;;;15.40;99.90;;;;;;5030368;28;20045;-59
2023/05/09 00:57:20;;;;;;;21.77;19.60;;;15.40;99.90;;;;;;5049236;28;20132;-58
2023/05/09 00:59:46;;;;;;;;;;;15.40;99.90;;;;;;5045559;28;20061;-58
2023/05/09 01:02:12;;;;;;;27.50;22.10;;;15.30;99.90;;;;;;5049387;28;20018;-59
2023/05/09 01:04:38;;;;;;;23.13;20.92;;;15.40;99.90;;;;;;5048791;28;20033;-59
2023/05/09 01:07:22;;;;;;;23.98;21.48;;;15.40;99.90;;;;;;5048727;28;20060;-60
2023/05/09 01:10:03;;;;;;;23.75;21.30;;;15.30;99.90;;;;;;5048972;28;20037;-60
2023/05/09 01:12:42;;;;;;;23.35;21.00;;;15.30;99.90;;;;;;5047474;28;20040;-60
2023/05/09 01:15:15;;;;;;;25.30;22.60;;;15.30;99.90;;;;;;5047074;28;20155;-60
2023/05/09 01:17:54;;;;;;;25.58;22.92;;;15.30;99.90;;;;;;5045644;28;20114;-60
2023/05/09 01:20:28;;;;;;;25.52;22.83;;;15.30;99.90;;;;;;5048642;28;20048;-59
2023/05/09 01:23:18;;;;;;;23.00;20.55;;;15.30;99.90;;;;;;5047199;28;20044;-60
2023/05/09 01:26:15;;;;;;;23.95;21.40;;;15.30;99.90;;;;;;5048139;28;20102;-59
2023/05/09 01:28:58;;;;;;;23.15;20.73;;;15.20;99.90;;;;;;5047567;28;20390;-60
2023/05/09 01:31:25;;;;;;;23.95;21.25;;;15.10;99.90;;;;;;5048454;28;20401;-58
2023/05/09 01:33:56;;;;;;;26.58;23.67;;;15.10;99.90;;;;;;5047915;28;20037;-60
2023/05/09 01:36:28;;;;;;;28.95;23.52;;;15.10;99.90;;;;;;5047685;28;20037;-60
2023/05/09 01:38:55;;;;;;;30.65;24.63;;;15.10;99.90;;;;;;5048188;28;20045;-58
2023/05/09 01:41:23;;;;;;;27.40;22.65;;;15.10;99.90;;;;;;5047925;28;20033;-59
2023/05/09 01:43:50;;;;;;;21.77;19.60;;;15.10;99.90;;;;;;5047786;28;20033;-59
2023/05/09 01:46:18;;;;;;;22.55;20.25;;;15.10;99.90;;;;;;5047950;28;20045;-58
2023/05/09 01:48:45;;;;;;;21.38;19.17;;;15.00;99.90;;;;;;5045159;28;20041;-59
2023/05/09 01:51:12;;;;;;;21.95;19.58;;;15.00;99.90;;;;;;5047696;28;20049;-59
2023/05/09 01:53:39;;;;;;;22.65;19.80;;;15.00;99.90;;;;;;5047627;28;20040;-60
2023/05/09 01:56:08;;;;;;;21.77;19.70;;;15.00;99.90;;;;;;5043959;28;20040;-59
2023/05/09 01:58:37;;;;;;;24.17;20.90;;;14.90;99.90;;;;;;5046012;28;20429;-60
2023/05/09 02:01:04;;;;;;;22.75;20.45;;;15.00;99.90;;;;;;5044874;28;20041;-60
2023/05/09 02:03:32;;;;;;;22.67;20.38;;;14.90;99.90;;;;;;5046287;28;20045;-59
2023/05/09 02:05:59;;;;;;;21.90;19.60;;;14.90;99.90;;;;;;5047915;28;20063;-59
2023/05/09 02:08:26;;;;;;;25.15;19.00;;;14.90;99.90;;;;;;5044948;28;20080;-60
2023/05/09 02:10:52;;;;;;;22.33;19.90;;;14.80;99.90;;;;;;5048073;28;20029;-60
2023/05/09 02:13:18;;;;;;;23.95;21.40;;;14.80;99.90;;;;;;5048347;28;20048;-59
2023/05/09 02:15:44;;;;;;;24.33;20.63;;;14.80;99.90;;;;;;5048073;28;20418;-60
2023/05/09 02:18:09;;;;;;;23.42;20.85;;;14.90;99.90;;;;;;5047196;28;20060;-59
2023/05/09 02:20:35;;;;;;;22.15;19.75;;;14.90;99.90;;;;;;5049352;28;20033;-59
2023/05/09 02:23:01;;;;;;;22.98;19.80;;;14.90;99.90;;;;;;5054720;28;20273;-57
2023/05/09 02:25:27;;;;;;;22.90;19.77;;;14.80;99.90;;;;;;5055796;28;20025;-58
2023/05/09 02:27:55;;;;;;;21.40;18.55;;;14.80;99.90;;;;;;5051431;28;20504;-58
2023/05/09 02:30:24;;;;;;;20.95;18.70;;;14.80;99.90;;;;;;5051919;28;20417;-58
2023/05/09 02:32:58;;;;;;;23.02;19.40;;;14.80;99.90;;;;;;5051410;28;20033;-59
2023/05/09 02:35:26;;;;;;;21.33;18.95;;;14.70;99.90;;;;;;5051211;28;20052;-59
2023/05/09 02:37:52;;;;;;;21.40;19.00;;;14.70;99.90;;;;;;5050564;28;20501;-59
2023/05/09 02:40:19;;;;;;;21.33;19.13;;;14.70;99.90;;;;;;5051962;28;20037;-59
2023/05/09 02:42:45;;;;;;;22.98;18.85;;;14.70;99.90;;;;;;5051800;28;20122;-59
2023/05/09 02:45:10;;;;;;;22.00;19.23;;;14.60;99.90;;;;;;5050500;28;20041;-60
2023/05/09 02:47:37;;;;;;;24.38;18.92;;;14.60;99.90;;;;;;5049952;28;20120;-60
2023/05/09 02:50:04;;;;;;;21.67;19.23;;;14.60;99.90;;;;;;5047946;28;20037;-60
2023/05/09 02:52:29;;;;;;;24.58;20.23;;;14.60;99.90;;;;;;5051325;28;20041;-58
2023/05/09 02:54:55;;;;;;;22.95;20.58;;;14.60;99.90;;;;;;5050122;28;20049;-59
2023/05/09 02:57:21;;;;;;;21.60;19.30;;;14.60;99.90;;;;;;5050762;28;20041;-59
2023/05/09 02:59:47;;;;;;;25.17;20.70;;;14.60;99.90;;;;;;5047708;28;20040;-60
2023/05/09 03:02:12;;;;;;;22.70;20.13;;;14.60;99.90;;;;;;5049270;28;20453;-59
2023/05/09 03:04:38;;;;;;;24.58;21.05;;;14.60;99.90;;;;;;5049565;28;20087;-59
2023/05/09 03:07:04;;;;;;;21.95;19.65;;;14.50;99.90;;;;;;5048832;28;20044;-59
2023/05/09 03:09:29;;;;;;;23.15;20.55;;;14.60;99.90;;;;;;5050556;28;20065;-59
2023/05/09 03:11:55;;;;;;;25.13;21.00;;;14.50;99.90;;;;;;5050476;28;20043;-59
2023/05/09 03:14:21;;;;;;;25.60;20.85;;;14.50;99.90;;;;;;5049514;28;20029;-60
2023/05/09 03:16:47;;;;;;;26.25;22.23;;;14.50;99.90;;;;;;5050015;28;20049;-59
2023/05/09 03:19:13;;;;;;;28.45;23.10;;;14.50;99.90;;;;;;5050622;28;20496;-58
2023/05/09 03:21:38;;;;;;;28.40;23.30;;;14.50;99.90;;;;;;5051092;28;20036;-59
2023/05/09 03:24:05;;;;;;;25.27;22.60;;;14.50;99.90;;;;;;5050464;28;20413;-60
2023/05/09 03:26:31;;;;;;;24.48;21.65;;;14.50;99.90;;;;;;5050701;28;20037;-60
2023/05/09 03:28:57;;;;;;;26.65;22.63;;;14.50;99.90;;;;;;5049793;28;20045;-59
2023/05/09 03:31:23;;;;;;;25.65;22.25;;;14.50;99.90;;;;;;5050695;28;20382;-59
2023/05/09 03:33:49;;;;;;;26.63;22.38;;;14.50;99.90;;;;;;5050572;28;20079;-59
2023/05/09 03:36:16;;;;;;;27.67;23.55;;;14.50;99.90;;;;;;5049680;28;20033;-60
2023/05/09 03:38:41;;;;;;;;;;;14.50;99.90;;;;;;5050647;28;20075;-58
2023/05/09 03:41:07;;;;;;;29.60;23.05;;;14.50;99.90;;;;;;5050639;28;19978;-60
2023/05/09 03:43:32;;;;;;;27.60;23.13;;;14.50;99.90;;;;;;5049644;28;20033;-59
2023/05/09 03:45:58;;;;;;;27.27;23.65;;;14.50;99.90;;;;;;5048945;28;20036;-60
2023/05/09 03:48:23;;;;;;;24.75;22.08;;;14.50;99.90;;;;;;5048180;28;20051;-59
2023/05/09 03:50:49;;;;;;;26.10;21.63;;;14.50;99.90;;;;;;5050604;28;20478;-58
2023/05/09 03:53:15;;;;;;;25.45;22.80;;;14.50;99.90;;;;;;5048595;28;20052;-60
2023/05/09 03:55:40;;;;;;;26.27;23.58;;;14.50;99.90;;;;;;5050124;28;20122;-59
2023/05/09 03:58:06;;;;;;;22.48;20.17;;;14.50;99.90;;;;;;5048262;28;20037;-60
2023/05/09 04:00:32;;;;;;;24.80;22.17;;;14.50;99.90;;;;;;5050274;28;20563;-59
2023/05/09 04:02:57;;;;;;;26.48;22.02;;;14.40;99.90;;;;;;5049924;28;20409;-58
2023/05/09 04:05:23;;;;;;;24.88;22.20;;;14.40;99.90;;;;;;5048865;28;20524;-59
2023/05/09 04:07:48;;;;;;;23.02;20.63;;;14.40;99.90;;;;;;5047776;28;20591;-60
2023/05/09 04:10:14;;;;;;;23.80;20.58;;;14.40;99.90;;;;;;5049401;28;20106;-60
2023/05/09 04:12:40;;;;;;;23.02;20.63;;;14.40;99.90;;;;;;5050071;28;20124;-59
2023/05/09 04:15:06;;;;;;;23.08;20.73;;;14.40;99.90;;;;;;5049543;28;20108;-59
2023/05/09 04:17:32;;;;;;;24.15;20.27;;;14.40;99.90;;;;;;5048979;28;20120;-59
2023/05/09 04:19:57;;;;;;;24.83;22.13;;;14.40;99.90;;;;;;5049437;28;20500;-59
2023/05/09 04:22:23;;;;;;;27.85;21.85;;;14.40;99.90;;;;;;5049269;28;20041;-59
2023/05/09 04:24:48;;;;;;;24.83;21.92;;;14.40;99.90;;;;;;5049475;28;20031;-59
2023/05/09 04:27:14;;;;;;;29.38;22.95;;;14.40;99.90;;;;;;5048899;28;20045;-59
2023/05/09 04:29:39;;;;;;;30.38;24.10;;;14.40;99.90;;;;;;5046340;28;20068;-59
2023/05/09 04:32:05;;;;;;;30.40;23.40;;;14.30;99.90;;;;;;5049676;28;20044;-59
2023/05/09 04:34:31;;;;;;;27.10;23.15;;;14.30;99.90;;;;;;5049015;28;20025;-60
2023/05/09 04:36:56;;;;;;;31.35;25.70;;;14.30;99.90;;;;;;5048801;28;20060;-59
2023/05/09 04:39:22;;;;;;;28.85;25.17;;;14.20;99.90;;;;;;5049192;28;20040;-59
2023/05/09 04:41:48;;;;;;;31.33;26.42;;;14.20;99.90;;;;;;5048207;28;20044;-60
2023/05/09 04:44:17;;;;;;;;;;;14.20;99.90;;;;;;5050101;28;20481;-60
2023/05/09 04:46:43;;;;;;;30.35;27.02;;;14.20;99.90;;;;;;5048586;28;19917;-58
2023/05/09 04:49:08;;;;;;;30.95;26.75;;;14.30;99.90;;;;;;5048396;28;20072;-59
2023/05/09 04:51:34;;;;;;;34.20;27.65;;;14.20;99.90;;;;;;5049211;28;20401;-59
2023/05/09 04:54:00;;;;;;;30.05;26.42;;;14.30;99.90;;;;;;5048004;28;20041;-59
2023/05/09 04:56:25;;;;;;;30.85;26.85;;;14.30;99.90;;;;;;5048997;28;20112;-59
2023/05/09 04:58:51;;;;;;;36.67;27.85;;;14.30;99.90;;;;;;5048863;28;20028;-59
2023/05/09 05:01:17;;;;;;;31.45;27.30;;;14.40;99.90;;;;;;5055102;28;20060;-58
2023/05/09 05:03:44;;;;;;;35.17;28.17;;;14.40;99.90;;;;;;5051013;28;20080;-58
2023/05/09 05:06:10;;;;;;;38.47;28.38;;;14.40;99.90;;;;;;5048525;28;20506;-58
2023/05/09 05:08:36;;;;;;;36.05;29.83;;;14.40;99.90;;;;;;5048002;28;20116;-58
2023/05/09 05:11:01;;;;;;;36.25;29.33;;;14.50;99.90;;;;;;5049104;28;20625;-58
2023/05/09 05:13:27;;;;;;;33.28;28.27;;;14.50;99.90;;;;;;5047978;28;20041;-57
2023/05/09 05:15:52;;;;;;;32.10;26.95;;;14.50;99.90;;;;;;5049133;28;20040;-57
2023/05/09 05:18:18;;;;;;;31.75;26.90;;;14.60;99.90;;;;;;5047219;28;20033;-57
2023/05/09 05:20:43;;;;;;;34.63;27.42;;;14.60;99.90;;;;;;5048672;28;20340;-59
2023/05/09 05:23:09;;;;;;;30.80;27.42;;;14.60;99.90;;;;;;5045161;28;20421;-58
2023/05/09 05:25:35;;;;;;;34.25;27.50;;;14.60;99.90;;;;;;5047552;28;20041;-58
2023/05/09 05:28:01;;;;;;;31.98;27.65;;;14.70;99.90;;;;;;5047507;28;20420;-58
2023/05/09 05:30:27;;;;;;;30.35;27.10;;;14.70;99.90;;;;;;5048771;28;20047;-58
2023/05/09 05:32:52;;;;;;;31.85;28.38;;;14.70;99.90;;;;;;5045580;28;20478;-58
2023/05/09 05:35:20;;;;;;;37.55;28.05;;;14.70;99.90;;;;;;5046420;28;20041;-57
2023/05/09 05:37:46;;;;;;;35.08;29.27;;;14.70;99.90;;;;;;5046887;28;20068;-59
2023/05/09 05:40:11;;;;;;;34.80;29.50;;;14.80;99.90;;;;;;5047897;28;20501;-58
2023/05/09 05:42:37;;;;;;;37.15;29.33;;;14.80;99.90;;;;;;5046694;28;20059;-61
2023/05/09 05:45:03;;;;;;;31.63;28.27;;;14.80;99.90;;;;;;5047950;28;20098;-59
2023/05/09 05:47:36;;;;;;;34.45;27.67;;;14.80;99.90;;;;;;5047049;28;20037;-58
2023/05/09 05:50:03;;;;;;;37.03;28.65;;;14.80;99.90;;;;;;5047985;28;20513;-59
2023/05/09 05:52:29;;;;;;;33.92;28.55;;;14.80;99.90;;;;;;5046107;28;20090;-59
2023/05/09 05:54:55;;;;;;;35.50;28.90;;;14.80;99.90;;;;;;5047890;28;20036;-58
2023/05/09 05:57:21;;;;;;;37.33;31.10;;;14.80;99.90;;;;;;5047271;28;20040;-58
2023/05/09 05:59:47;;;;;;;37.53;29.40;;;14.80;99.90;;;;;;5048108;28;20036;-60
2023/05/09 06:02:13;;;;;;;35.92;30.30;;;14.80;99.90;;;;;;5051124;28;20192;-59
2023/05/09 06:04:39;;;;;;;27.95;24.90;;;14.80;99.90;;;;;;5049407;28;20037;-57
2023/05/09 06:07:05;;;;;;;;;;;14.90;99.90;;;;;;5050716;28;20116;-58
2023/05/09 06:09:30;;;;;;;34.95;28.63;;;14.90;99.90;;;;;;5050506;28;20019;-59
2023/05/09 06:11:56;;;;;;;35.50;29.70;;;14.90;99.90;;;;;;5051364;28;20429;-59
2023/05/09 06:14:22;;;;;;;34.63;30.92;;;14.90;99.90;;;;;;5050730;28;20037;-59
2023/05/09 06:16:47;;;;;;;35.53;30.00;;;14.90;99.90;;;;;;5052301;28;20036;-59
2023/05/09 06:19:13;;;;;;;39.53;30.98;;;14.90;99.90;;;;;;5052741;28;20068;-58
2023/05/09 06:21:38;;;;;;;36.63;30.45;;;15.00;99.90;;;;;;5053314;28;20033;-59
2023/05/09 06:24:04;;;;;;;35.78;29.10;;;15.00;99.90;;;;;;5052350;28;20394;-57
2023/05/09 06:26:30;;;;;;;38.85;30.73;;;15.00;99.90;;;;;;5085348;28;20049;-58
2023/05/09 06:28:56;;;;;;;38.80;30.85;;;15.00;99.90;;;;;;5052863;28;20041;-59
2023/05/09 06:31:21;;;;;;;36.20;30.90;;;15.10;99.90;;;;;;5054167;28;20036;-59
2023/05/09 06:33:47;;;;;;;38.35;30.95;;;15.10;99.90;;;;;;5053048;28;20490;-58
2023/05/09 06:36:12;;;;;;;38.33;31.70;;;15.10;99.90;;;;;;5052770;28;20040;-59
2023/05/09 06:38:38;;;;;;;38.30;31.42;;;15.10;99.90;;;;;;5052081;28;20051;-58
2023/05/09 06:41:04;;;;;;;36.15;31.48;;;15.20;99.90;;;;;;5052699;28;20041;-59
2023/05/09 06:43:30;;;;;;;37.67;29.88;;;15.20;99.90;;;;;;5052646;28;20041;-60
2023/05/09 06:45:55;;;;;;;35.08;31.13;;;15.20;99.90;;;;;;5049777;28;20459;-58
2023/05/09 06:48:22;;;;;;;35.22;31.40;;;15.20;99.90;;;;;;5048199;28;20041;-58
2023/05/09 06:50:48;;;;;;;40.45;34.10;;;15.20;99.90;;;;;;5051132;28;20065;-60
2023/05/09 06:53:14;;;;;;;38.55;32.20;;;15.30;99.90;;;;;;5047617;28;20382;-60
2023/05/09 06:55:40;;;;;;;42.70;33.22;;;15.30;99.90;;;;;;5051690;28;20052;-59
2023/05/09 06:58:06;;;;;;;42.63;33.22;;;15.30;99.90;;;;;;5050289;28;20043;-60
2023/05/09 07:00:32;;;;;;;40.38;32.55;;;15.40;99.90;;;;;;5050817;28;20698;-60
2023/05/09 07:02:57;;;;;;;45.45;34.83;;;15.40;99.90;;;;;;5051511;28;20512;-60
2023/05/09 07:05:23;;;;;;;43.80;34.05;;;15.40;99.90;;;;;;5051976;28;20045;-59
2023/05/09 07:07:49;;;;;;;41.22;31.30;;;15.40;99.90;;;;;;5050201;28;20102;-59
2023/05/09 07:10:14;;;;;;;45.33;33.28;;;15.40;99.90;;;;;;5051634;28;20701;-60
2023/05/09 07:12:40;;;;;;;39.90;33.03;;;15.40;99.90;;;;;;5052372;28;20047;-60
2023/05/09 07:15:07;;;;;;;48.15;35.90;;;15.30;99.90;;;;;;5050734;28;20055;-60
2023/05/09 07:17:32;;;;;;;44.55;35.53;;;15.30;99.90;;;;;;5051344;28;20045;-60
2023/05/09 07:19:58;;;;;;;48.88;36.60;;;15.40;99.90;;;;;;5051070;28;20048;-60
2023/05/09 07:22:23;;;;;;;53.50;34.83;;;15.40;99.90;;;;;;5051167;28;20040;-61
2023/05/09 07:24:49;;;;;;;47.28;34.22;;;15.40;99.90;;;;;;5050672;28;20045;-61
2023/05/09 07:27:15;;;;;;;47.30;34.80;;;15.40;99.90;;;;;;5049280;28;20052;-61
2023/05/09 07:29:41;;;;;;;48.83;35.28;;;15.40;99.90;;;;;;5050658;28;20120;-61
2023/05/09 07:32:06;;;;;;;49.17;34.63;;;15.40;99.90;;;;;;5051341;28;20032;-58
2023/05/09 07:34:32;;;;;;;52.35;37.72;;;15.50;99.90;;;;;;5051088;28;20029;-60
2023/05/09 07:36:58;;;;;;;59.47;38.53;;;15.50;99.90;;;;;;5053509;28;20647;-59
2023/05/09 07:39:23;;;;;;;50.25;35.97;;;15.50;99.90;;;;;;5040943;28;20076;-60
2023/05/09 07:41:49;;;;;;;59.97;38.33;;;15.60;99.90;;;;;;5032833;28;20375;-61
2023/05/09 07:44:15;;;;;;;52.63;37.97;;;15.60;99.90;;;;;;5049668;28;20155;-60
2023/05/09 07:46:40;;;;;;;50.75;36.28;;;15.70;99.90;;;;;;5050951;28;20505;-60
2023/05/09 07:49:07;;;;;;;54.72;36.55;;;15.80;99.90;;;;;;5050040;28;20505;-60
2023/05/09 07:51:32;;;;;;;57.72;37.53;;;15.80;99.90;;;;;;5042340;28;20042;-61
2023/05/09 07:53:58;;;;;;;48.75;35.75;;;15.90;99.90;;;;;;5049052;28;20391;-61
2023/05/09 07:56:23;;;;;;;52.20;37.63;;;15.90;99.90;;;;;;5051092;28;20036;-62
2023/05/09 07:58:49;;;;;;;51.95;34.60;;;16.00;99.90;;;;;;5049313;28;20137;-61
2023/05/09 08:01:15;;;;;;;55.10;37.72;;;16.00;99.90;;;;;;5049637;28;20446;-62
2023/05/09 08:03:40;;;;;;;48.42;35.35;;;16.10;99.90;;;;;;5044302;28;20056;-61
2023/05/09 08:06:06;;;;;;;50.03;35.13;;;16.10;99.90;;;;;;5042380;28;20078;-61
2023/05/09 08:08:32;;;;;;;52.25;36.60;;;16.10;99.90;;;;;;5039552;28;20068;-62
2023/05/09 08:10:57;;;;;;;54.15;36.17;;;16.20;99.90;;;;;;5044464;28;20029;-61
2023/05/09 08:13:24;;;;;;;52.30;35.67;;;16.20;99.90;;;;;;5043253;28;20033;-61
2023/05/09 08:15:49;;;;;;;55.08;37.15;;;16.20;99.90;;;;;;5045109;28;20040;-61
2023/05/09 08:18:15;;;;;;;50.42;37.60;;;16.30;99.90;;;;;;5043188;28;20408;-60
2023/05/09 08:20:41;;;;;;;52.65;36.20;;;16.30;99.90;;;;;;5043738;28;20037;-62
2023/05/09 08:23:06;;;;;;;55.65;36.63;;;16.30;99.90;;;;;;5044146;28;20069;-61
2023/05/09 08:25:32;;;;;;;48.75;35.00;;;16.30;99.90;;;;;;5043811;28;20729;-61
2023/05/09 08:27:58;;;;;;;56.10;36.72;;;16.30;99.90;;;;;;5041586;28;20448;-61
2023/05/09 08:30:23;;;;;;;49.97;34.45;;;16.40;99.90;;;;;;5044533;28;20033;-61
2023/05/09 08:32:49;;;;;;;49.95;35.20;;;16.40;99.90;;;;;;5043356;28;20122;-62
2023/05/09 08:35:15;;;;;;;56.10;37.20;;;16.40;99.90;;;;;;5044391;28;20338;-61
2023/05/09 08:37:40;;;;;;;51.95;35.08;;;16.40;99.90;;;;;;5035368;28;20037;-62
2023/05/09 08:40:07;;;;;;;50.78;34.65;;;16.40;99.90;;;;;;5042052;28;20126;-61
2023/05/09 08:42:35;;;;;;;49.33;34.03;;;16.50;99.90;;;;;;5044085;28;20037;-61
2023/05/09 08:45:06;;;;;;;54.47;35.92;;;16.50;99.90;;;;;;5042882;28;20040;-62
2023/05/09 08:47:36;;;;;;;54.10;35.38;;;16.50;99.90;;;;;;5038263;28;20119;-61
2023/05/09 08:50:03;;;;;;;47.53;33.75;;;16.50;99.90;;;;;;5043518;28;20496;-61
2023/05/09 08:52:31;;;;;;;49.45;36.33;;;16.50;99.90;;;;;;5043597;28;20393;-61
2023/05/09 08:54:57;;;;;;;48.55;34.92;;;16.50;99.90;;;;;;5039725;28;20037;-61
2023/05/09 08:57:22;;;;;;;49.47;35.17;;;16.50;99.90;;;;;;5038960;28;20532;-61
2023/05/09 08:59:51;;;;;;;53.08;37.53;;;16.60;99.90;;;;;;5036998;28;21744;-61
2023/05/09 09:02:18;;;;;;;60.08;37.17;;;16.60;99.90;;;;;;5045168;28;20052;-61
2023/05/09 09:04:44;;;;;;;54.28;36.50;;;16.70;99.90;;;;;;5047747;28;20055;-61
2023/05/09 09:07:10;;;;;;;47.38;34.15;;;16.80;99.90;;;;;;5047663;28;20033;-60
2023/05/09 09:09:38;;;;;;;49.70;35.65;;;16.80;99.90;;;;;;5045715;28;20044;-61
2023/05/09 09:12:06;;;;;;;50.83;36.92;;;16.90;99.90;;;;;;5049531;28;20044;-61
2023/05/09 09:14:37;;;;;;;45.42;34.20;;;17.00;99.90;;;;;;5040297;28;20139;-61
2023/05/09 09:17:04;;;;;;;49.08;35.00;;;17.10;99.90;;;;;;5050697;28;20047;-61
2023/05/09 09:19:32;;;;;;;48.05;34.30;;;17.20;99.90;;;;;;5046554;28;20036;-61
2023/05/09 09:22:01;;;;;;;42.45;31.33;;;17.30;99.90;;;;;;5050321;28;20133;-61
2023/05/09 09:24:27;;;;;;;40.25;30.83;;;17.40;99.90;;;;;;5044762;28;20037;-61
2023/05/09 09:26:53;;;;;;;44.72;33.60;;;17.40;99.90;;;;;;5045022;28;20064;-59
2023/05/09 09:29:19;;;;;;;47.05;32.25;;;17.40;99.90;;;;;;5045560;28;20044;-60
2023/05/09 09:31:47;;;;;;;45.22;32.58;;;17.40;99.90;;;;;;5052163;28;20166;-60
2023/05/09 09:34:19;;;;;;;45.45;32.97;;;17.40;99.90;;;;;;5050556;28;20051;-61
2023/05/09 09:36:45;;;;;;;40.78;32.13;;;17.40;99.90;;;;;;5047225;28;20506;-60
2023/05/09 09:39:12;;;;;;;45.53;33.47;;;17.40;99.90;;;;;;5046283;28;20045;-60
2023/05/09 09:41:39;;;;;;;43.20;32.55;;;17.30;99.90;;;;;;5046765;28;20028;-61
2023/05/09 09:44:15;;;;;;;43.55;32.55;;;17.30;99.90;;;;;;5044781;28;20047;-60
2023/05/09 09:46:52;;;;;;;42.17;34.33;;;17.20;99.90;;;;;;5042373;28;20108;-61
2023/05/09 09:49:23;;;;;;;48.05;33.38;;;17.20;99.90;;;;;;5043438;28;20041;-60
2023/05/09 09:51:50;;;;;;;48.70;33.47;;;17.20;99.90;;;;;;5047477;28;20113;-61
2023/05/09 09:54:16;;;;;;;50.55;35.60;;;17.20;99.90;;;;;;5046812;28;20396;-62
2023/05/09 09:56:52;;;;;;;53.58;36.45;;;17.20;99.90;;;;;;5047386;28;20087;-60
2023/05/09 09:59:23;;;;;;;48.97;35.85;;;17.30;99.90;;;;;;5044097;28;21136;-61
2023/05/09 10:02:03;;;;;;;47.17;34.58;;;17.40;99.90;;;;;;5044107;28;20072;-63
2023/05/09 10:04:37;;;;;;;47.22;35.70;;;17.40;99.90;;;;;;5045548;28;20394;-61
2023/05/09 10:07:05;;;;;;;49.13;35.83;;;17.50;99.90;;;;;;5045369;28;20045;-60
2023/05/09 10:09:32;;;;;;;53.80;37.72;;;17.50;99.90;;;;;;5044805;28;20033;-61
2023/05/09 10:12:02;;;;;;;54.13;37.72;;;17.60;99.90;;;;;;5054844;28;20393;-60
2023/05/09 10:14:31;;;;;;;52.40;37.28;;;17.70;99.90;;;;;;5038014;28;20044;-60
2023/05/09 10:16:59;;;;;;;52.40;36.60;;;17.80;99.90;;;;;;5043682;28;20088;-61
2023/05/09 10:19:28;;;;;;;54.92;38.42;;;17.80;99.90;;;;;;5040540;28;20073;-61
2023/05/09 10:21:56;;;;;;;49.30;36.30;;;17.80;99.90;;;;;;5046359;28;20091;-60
2023/05/09 10:24:28;;;;;;;51.03;35.05;;;17.80;99.90;;;;;;5036867;28;20119;-61
2023/05/09 10:27:02;;;;;;;48.83;34.60;;;17.80;99.90;;;;;;5045198;28;20343;-61
2023/05/09 10:29:33;;;;;;;51.42;37.97;;;17.80;99.90;;;;;;5042062;28;20040;-60
2023/05/09 10:32:01;;;;;;;55.97;38.60;;;17.80;99.90;;;;;;5045379;28;20041;-60
2023/05/09 10:34:31;;;;;;;53.50;37.78;;;17.80;99.90;;;;;;5038673;28;20317;-61
2023/05/09 10:36:59;;;;;;;51.25;38.00;;;17.80;99.90;;;;;;5035905;28;20551;-61
2023/05/09 10:39:26;;;;;;;54.08;37.80;;;17.80;99.90;;;;;;5042671;28;20047;-61
2023/05/09 10:41:53;;;;;;;61.10;40.75;;;17.90;99.90;;;;;;5042693;28;20320;-61
2023/05/09 10:44:22;;;;;;;56.40;37.95;;;18.10;99.90;;;;;;5041911;28;20037;-61
2023/05/09 10:46:47;;;;;;;53.17;38.60;;;18.30;99.90;;;;;;5046275;28;20112;-61
2023/05/09 10:49:13;;;;;;;52.83;37.33;;;18.60;99.90;;;;;;5046446;28;20124;-60
2023/05/09 10:51:39;;;;;;;55.15;37.88;;;18.70;99.90;;;;;;5047596;28;20033;-61
2023/05/09 10:54:14;;;;;;;51.50;38.10;;;18.90;99.90;;;;;;5046143;28;20792;-61
2023/05/09 10:56:40;;;;;;;52.58;37.20;;;19.10;99.90;;;;;;5046948;28;20097;-60
2023/05/09 10:59:05;;;;;;;59.83;36.88;;;19.10;99.90;;;;;;5045282;28;20127;-61
2023/05/09 11:01:37;;;;;;;44.17;34.45;;;19.30;99.90;;;;;;5047252;28;20417;-61
2023/05/09 11:04:10;;;;;;;74.25;47.20;;;19.30;99.90;;;;;;5044638;28;20098;-62
2023/05/09 11:06:45;;;;;;;71.97;45.90;;;19.40;99.90;;;;;;5046698;28;20758;-60
2023/05/09 11:09:26;;;;;;;73.97;48.50;;;19.40;99.90;;;;;;5044329;28;20067;-61
2023/05/09 11:12:13;;;;;;;79.40;52.20;;;19.40;99.90;;;;;;5045017;28;20234;-60
2023/05/09 11:14:43;;;;;;;78.38;51.88;;;19.40;99.90;;;;;;5046516;28;20044;-60
2023/05/09 11:17:31;;;;;;;83.00;51.28;;;19.30;99.90;;;;;;5046718;28;20041;-61
2023/05/09 11:19:59;;;;;;;76.47;49.78;;;19.20;99.90;;;;;;5046086;28;20110;-61
2023/05/09 11:22:30;;;;;;;77.35;50.47;;;19.10;99.90;;;;;;5046971;28;20464;-61
2023/05/09 11:25:06;;;;;;;78.95;50.95;;;19.00;99.90;;;;;;5044233;28;20481;-61
2023/05/09 11:27:42;;;;;;;77.63;50.20;;;18.90;99.90;;;;;;5043249;28;20036;-60
2023/05/09 11:30:09;;;;;;;83.25;51.25;;;18.80;99.90;;;;;;5047198;28;20090;-62
2023/05/09 11:32:50;;;;;;;85.10;52.63;;;18.70;99.90;;;;;;5053007;28;20036;-61
2023/05/09 11:35:19;;;;;;;78.72;48.92;;;18.60;99.90;;;;;;5045564;28;20067;-60
2023/05/09 11:38:00;;;;;;;76.93;49.08;;;18.60;99.90;;;;;;5044457;28;20052;-61
2023/05/09 11:40:28;;;;;;;71.88;47.35;;;18.60;99.90;;;;;;5043917;28;20541;-60
2023/05/09 11:42:56;;;;;;;57.33;40.38;;;18.60;99.90;;;;;;5045853;28;20087;-60
2023/05/09 11:45:23;;;;;;;52.28;36.72;;;18.50;99.90;;;;;;5045866;28;20098;-60
2023/05/09 11:47:50;;;;;;;46.78;35.15;;;18.50;99.90;;;;;;5045233;28;20472;-61
2023/05/09 11:50:18;;;;;;;49.00;33.35;;;18.50;99.90;;;;;;5044069;28;20140;-60
2023/05/09 11:52:44;;;;;;;46.08;34.38;;;18.40;99.90;;;;;;5042462;28;20041;-61
2023/05/09 11:55:13;;;;;;;48.65;33.60;;;18.40;99.90;;;;;;5044615;28;20363;-61
2023/05/09 11:57:45;;;;;;;51.10;34.55;;;18.40;99.90;;;;;;5042668;28;20118;-60
2023/05/09 12:00:11;;;;;;;47.47;35.45;;;18.50;99.90;;;;;;5047613;28;20111;-61
2023/05/09 12:02:37;;;;;;;50.20;37.28;;;18.50;99.90;;;;;;5045352;28;20468;-60
2023/05/09 12:05:11;;;;;;;54.58;36.20;;;18.50;99.90;;;;;;5047307;28;20065;-61
2023/05/09 12:07:38;;;;;;;48.42;35.83;;;18.50;99.90;;;;;;5042545;28;20060;-61
2023/05/09 12:10:24;;;;;;;70.95;45.35;;;18.60;99.90;;;;;;5027375;28;20536;-60
2023/05/09 12:12:51;;;;;;;69.40;48.78;;;18.60;99.90;;;;;;5038387;28;20041;-60
2023/05/09 12:15:18;;;;;;;82.93;56.03;;;18.70;99.90;;;;;;5028839;28;20063;-61
2023/05/09 12:17:45;;;;;;;94.10;59.25;;;18.80;99.90;;;;;;5035683;28;20560;-60
2023/05/09 12:20:11;;;;;;;91.50;59.83;;;18.80;99.90;;;;;;5037261;28;20123;-60
2023/05/09 12:22:37;;;;;;;94.60;61.95;;;19.00;99.90;;;;;;5046768;28;20120;-61
2023/05/09 12:25:09;;;;;;;92.50;62.50;;;19.10;99.90;;;;;;5033489;28;20533;-60
2023/05/09 12:27:36;;;;;;;99.07;61.97;;;19.10;99.90;;;;;;5039767;28;20041;-60
2023/05/09 12:30:07;;;;;;;94.90;61.22;;;19.20;99.90;;;;;;5053474;28;20044;-61